sensor_id;sensor_type;location;lat;lon;timestamp;temperature;humidity
54124;DHT22;55741;53.252;5.788;2024-02-28T00:01:52;3.90;99.90
54124;DHT22;55741;53.252;5.788;2024-02-28T00:04:33;3.90;99.90
54124;DHT22;55741;53.252;5.788;2024-02-28T00:07:11;3.90;99.90
54124;DHT22;55741;53.252;5.788;2024-02-28T00:09:51;3.90;99.90
54124;DHT22;55741;53.252;5.788;2024-02-28T00:12:30;3.90;99.90
54124;DHT22;55741;53.252;5.788;2024-02-28T00:15:09;3.90;99.90
54124;DHT22;55741;53.252;5.788;2024-02-28T00:17:52;3.90;99.90
54124;DHT22;55741;53.252;5.788;2024-02-28T00:20:33;3.90;99.90
54124;DHT22;55741;53.252;5.788;2024-02-28T00:23:13;3.90;99.90
54124;DHT22;55741;53.252;5.788;2024-02-28T00:25:52;3.90;99.90
54124;DHT22;55741;53.252;5.788;2024-02-28T00:28:32;3.90;99.90
54124;DHT22;55741;53.252;5.788;2024-02-28T00:31:12;3.90;99.90
54124;DHT22;55741;53.252;5.788;2024-02-28T00:33:51;3.80;99.90
54124;DHT22;55741;53.252;5.788;2024-02-28T00:36:30;3.80;99.90
54124;DHT22;55741;53.252;5.788;2024-02-28T00:39:10;3.80;99.90
54124;DHT22;55741;53.252;5.788;2024-02-28T00:41:49;3.70;99.90
54124;DHT22;55741;53.252;5.788;2024-02-28T00:44:28;3.70;99.90
54124;DHT22;55741;53.252;5.788;2024-02-28T00:47:11;3.70;99.90
54124;DHT22;55741;53.252;5.788;2024-02-28T00:49:51;3.80;99.90
54124;DHT22;55741;53.252;5.788;2024-02-28T00:52:31;3.80;99.90
54124;DHT22;55741;53.252;5.788;2024-02-28T00:55:12;3.70;99.90
54124;DHT22;55741;53.252;5.788;2024-02-28T00:57:50;3.80;99.90
54124;DHT22;55741;53.252;5.788;2024-02-28T01:00:29;3.70;99.90
54124;DHT22;55741;53.252;5.788;2024-02-28T01:03:07;3.70;99.90
54124;DHT22;55741;53.252;5.788;2024-02-28T01:05:49;3.70;99.90
54124;DHT22;55741;53.252;5.788;2024-02-28T01:08:28;3.70;99.90
54124;DHT22;55741;53.252;5.788;2024-02-28T01:11:06;3.60;99.90
54124;DHT22;55741;53.252;5.788;2024-02-28T01:13:45;3.70;99.90
54124;DHT22;55741;53.252;5.788;2024-02-28T01:16:23;3.60;99.90
54124;DHT22;55741;53.252;5.788;2024-02-28T01:19:03;3.70;99.90
54124;DHT22;55741;53.252;5.788;2024-02-28T01:21:42;3.60;99.90
54124;DHT22;55741;53.252;5.788;2024-02-28T01:24:22;3.70;99.90
54124;DHT22;55741;53.252;5.788;2024-02-28T01:27:04;3.60;99.90
54124;DHT22;55741;53.252;5.788;2024-02-28T01:29:45;3.60;99.90
54124;DHT22;55741;53.252;5.788;2024-02-28T01:32:25;3.60;99.90
54124;DHT22;55741;53.252;5.788;2024-02-28T01:35:04;3.70;99.90
54124;DHT22;55741;53.252;5.788;2024-02-28T01:37:42;3.60;99.90
54124;DHT22;55741;53.252;5.788;2024-02-28T01:40:22;3.60;99.90
54124;DHT22;55741;53.252;5.788;2024-02-28T01:43:07;3.60;99.90
54124;DHT22;55741;53.252;5.788;2024-02-28T01:45:47;3.60;99.90
54124;DHT22;55741;53.252;5.788;2024-02-28T01:48:27;3.70;99.90
54124;DHT22;55741;53.252;5.788;2024-02-28T01:51:06;3.60;99.90
54124;DHT22;55741;53.252;5.788;2024-02-28T01:53:47;3.60;99.90
54124;DHT22;55741;53.252;5.788;2024-02-28T01:56:27;3.60;99.90
54124;DHT22;55741;53.252;5.788;2024-02-28T01:59:10;3.60;99.90
54124;DHT22;55741;53.252;5.788;2024-02-28T02:01:50;3.60;99.90
54124;DHT22;55741;53.252;5.788;2024-02-28T02:04:30;3.60;99.90
54124;DHT22;55741;53.252;5.788;2024-02-28T02:07:10;3.70;99.90
54124;DHT22;55741;53.252;5.788;2024-02-28T02:09:49;3.60;99.90
54124;DHT22;55741;53.252;5.788;2024-02-28T02:12:30;3.70;99.90
54124;DHT22;55741;53.252;5.788;2024-02-28T02:15:12;3.70;99.90
54124;DHT22;55741;53.252;5.788;2024-02-28T02:17:53;3.70;99.90
54124;DHT22;55741;53.252;5.788;2024-02-28T02:20:32;3.70;99.90
54124;DHT22;55741;53.252;5.788;2024-02-28T02:23:14;3.80;99.90
54124;DHT22;55741;53.252;5.788;2024-02-28T02:25:53;3.80;99.90
54124;DHT22;55741;53.252;5.788;2024-02-28T02:28:35;3.80;99.90
54124;DHT22;55741;53.252;5.788;2024-02-28T02:31:14;3.80;99.90
54124;DHT22;55741;53.252;5.788;2024-02-28T02:33:52;3.80;99.90
54124;DHT22;55741;53.252;5.788;2024-02-28T02:36:33;3.80;99.90
54124;DHT22;55741;53.252;5.788;2024-02-28T02:39:13;3.90;99.90
54124;DHT22;55741;53.252;5.788;2024-02-28T02:41:53;3.90;99.90
54124;DHT22;55741;53.252;5.788;2024-02-28T02:44:34;4.00;99.90
54124;DHT22;55741;53.252;5.788;2024-02-28T02:47:12;4.10;99.90
54124;DHT22;55741;53.252;5.788;2024-02-28T02:49:51;3.90;99.90
54124;DHT22;55741;53.252;5.788;2024-02-28T02:52:34;4.00;99.90
54124;DHT22;55741;53.252;5.788;2024-02-28T02:55:14;4.00;99.90
54124;DHT22;55741;53.252;5.788;2024-02-28T02:57:55;4.00;99.90
54124;DHT22;55741;53.252;5.788;2024-02-28T03:00:33;4.00;99.90
54124;DHT22;55741;53.252;5.788;2024-02-28T03:03:15;4.10;99.90
54124;DHT22;55741;53.252;5.788;2024-02-28T03:05:53;4.10;99.90
54124;DHT22;55741;53.252;5.788;2024-02-28T03:08:33;4.10;99.90
54124;DHT22;55741;53.252;5.788;2024-02-28T03:11:12;4.10;99.90
54124;DHT22;55741;53.252;5.788;2024-02-28T03:13:50;4.10;99.90
54124;DHT22;55741;53.252;5.788;2024-02-28T03:16:29;4.20;99.90
54124;DHT22;55741;53.252;5.788;2024-02-28T03:19:10;4.10;99.90
54124;DHT22;55741;53.252;5.788;2024-02-28T03:21:49;4.10;99.90
54124;DHT22;55741;53.252;5.788;2024-02-28T03:24:28;4.10;99.90
54124;DHT22;55741;53.252;5.788;2024-02-28T03:27:08;4.10;99.90
54124;DHT22;55741;53.252;5.788;2024-02-28T03:29:48;4.20;99.90
54124;DHT22;55741;53.252;5.788;2024-02-28T03:32:27;4.10;99.90
54124;DHT22;55741;53.252;5.788;2024-02-28T03:35:06;4.30;99.90
54124;DHT22;55741;53.252;5.788;2024-02-28T03:37:47;4.10;99.90
54124;DHT22;55741;53.252;5.788;2024-02-28T03:40:31;4.20;99.90
54124;DHT22;55741;53.252;5.788;2024-02-28T03:43:11;4.20;99.90
54124;DHT22;55741;53.252;5.788;2024-02-28T03:45:51;4.20;99.90
54124;DHT22;55741;53.252;5.788;2024-02-28T03:48:30;4.30;99.90
54124;DHT22;55741;53.252;5.788;2024-02-28T03:51:10;4.20;99.90
54124;DHT22;55741;53.252;5.788;2024-02-28T03:53:48;4.30;99.90
54124;DHT22;55741;53.252;5.788;2024-02-28T03:56:27;4.30;99.90
54124;DHT22;55741;53.252;5.788;2024-02-28T03:59:07;4.40;99.90
54124;DHT22;55741;53.252;5.788;2024-02-28T04:01:46;4.40;99.90
54124;DHT22;55741;53.252;5.788;2024-02-28T04:04:25;4.40;99.90
54124;DHT22;55741;53.252;5.788;2024-02-28T04:07:05;4.50;99.90
54124;DHT22;55741;53.252;5.788;2024-02-28T04:09:44;4.50;99.90
54124;DHT22;55741;53.252;5.788;2024-02-28T04:12:23;4.40;99.90
54124;DHT22;55741;53.252;5.788;2024-02-28T04:15:03;4.50;99.90
54124;DHT22;55741;53.252;5.788;2024-02-28T04:17:43;4.50;99.90
54124;DHT22;55741;53.252;5.788;2024-02-28T04:20:25;4.50;99.90
54124;DHT22;55741;53.252;5.788;2024-02-28T04:23:04;4.50;99.90
54124;DHT22;55741;53.252;5.788;2024-02-28T04:25:43;4.60;99.90
54124;DHT22;55741;53.252;5.788;2024-02-28T04:28:22;4.70;99.90
54124;DHT22;55741;53.252;5.788;2024-02-28T04:31:03;4.60;99.90
54124;DHT22;55741;53.252;5.788;2024-02-28T04:33:41;4.70;99.90
54124;DHT22;55741;53.252;5.788;2024-02-28T04:36:22;4.70;99.90
54124;DHT22;55741;53.252;5.788;2024-02-28T04:39:04;4.70;99.90
54124;DHT22;55741;53.252;5.788;2024-02-28T04:41:47;4.80;99.90
54124;DHT22;55741;53.252;5.788;2024-02-28T04:44:26;4.70;99.90
54124;DHT22;55741;53.252;5.788;2024-02-28T04:47:05;4.80;99.90
54124;DHT22;55741;53.252;5.788;2024-02-28T04:49:45;4.70;99.90
54124;DHT22;55741;53.252;5.788;2024-02-28T04:52:25;4.70;99.90
54124;DHT22;55741;53.252;5.788;2024-02-28T04:55:04;4.80;99.90
54124;DHT22;55741;53.252;5.788;2024-02-28T04:57:43;4.80;99.90
54124;DHT22;55741;53.252;5.788;2024-02-28T05:00:22;4.80;99.90
54124;DHT22;55741;53.252;5.788;2024-02-28T05:03:03;4.80;99.90
54124;DHT22;55741;53.252;5.788;2024-02-28T05:05:42;4.90;99.90
54124;DHT22;55741;53.252;5.788;2024-02-28T05:08:21;4.80;99.90
54124;DHT22;55741;53.252;5.788;2024-02-28T05:10:59;4.90;99.90
54124;DHT22;55741;53.252;5.788;2024-02-28T05:13:39;4.90;99.90
54124;DHT22;55741;53.252;5.788;2024-02-28T05:16:18;4.90;99.90
54124;DHT22;55741;53.252;5.788;2024-02-28T05:18:56;5.00;99.90
54124;DHT22;55741;53.252;5.788;2024-02-28T05:21:45;5.00;99.90
54124;DHT22;55741;53.252;5.788;2024-02-28T05:24:23;4.90;99.90
54124;DHT22;55741;53.252;5.788;2024-02-28T05:27:04;4.90;99.90
54124;DHT22;55741;53.252;5.788;2024-02-28T05:29:42;4.90;99.90
54124;DHT22;55741;53.252;5.788;2024-02-28T05:32:21;5.00;99.90
54124;DHT22;55741;53.252;5.788;2024-02-28T05:34:59;5.00;99.90
54124;DHT22;55741;53.252;5.788;2024-02-28T05:37:40;5.00;99.90
54124;DHT22;55741;53.252;5.788;2024-02-28T05:40:18;5.00;99.90
54124;DHT22;55741;53.252;5.788;2024-02-28T05:42:58;5.00;99.90
54124;DHT22;55741;53.252;5.788;2024-02-28T05:45:39;5.00;99.90
54124;DHT22;55741;53.252;5.788;2024-02-28T05:48:18;5.00;99.90
54124;DHT22;55741;53.252;5.788;2024-02-28T05:50:57;5.10;99.90
54124;DHT22;55741;53.252;5.788;2024-02-28T05:53:36;5.10;99.90
54124;DHT22;55741;53.252;5.788;2024-02-28T05:56:16;5.10;99.90
54124;DHT22;55741;53.252;5.788;2024-02-28T05:59:00;5.20;99.90
54124;DHT22;55741;53.252;5.788;2024-02-28T06:01:41;5.10;99.90
54124;DHT22;55741;53.252;5.788;2024-02-28T06:04:21;5.00;99.90
54124;DHT22;55741;53.252;5.788;2024-02-28T06:07:00;5.20;99.90
54124;DHT22;55741;53.252;5.788;2024-02-28T06:09:40;5.10;99.90
54124;DHT22;55741;53.252;5.788;2024-02-28T06:12:20;5.20;99.90
54124;DHT22;55741;53.252;5.788;2024-02-28T06:15:00;5.10;99.90
54124;DHT22;55741;53.252;5.788;2024-02-28T06:17:38;5.20;99.90
54124;DHT22;55741;53.252;5.788;2024-02-28T06:20:24;5.30;99.90
54124;DHT22;55741;53.252;5.788;2024-02-28T06:23:03;5.20;99.90
54124;DHT22;55741;53.252;5.788;2024-02-28T06:25:43;5.30;99.90
54124;DHT22;55741;53.252;5.788;2024-02-28T06:28:23;5.30;99.90
54124;DHT22;55741;53.252;5.788;2024-02-28T06:31:03;5.30;99.90
54124;DHT22;55741;53.252;5.788;2024-02-28T06:33:44;5.30;99.90
54124;DHT22;55741;53.252;5.788;2024-02-28T06:36:23;5.30;99.90
54124;DHT22;55741;53.252;5.788;2024-02-28T06:39:09;5.40;99.90
54124;DHT22;55741;53.252;5.788;2024-02-28T06:41:48;5.30;99.90
54124;DHT22;55741;53.252;5.788;2024-02-28T06:44:31;5.40;99.90
54124;DHT22;55741;53.252;5.788;2024-02-28T06:47:12;5.40;99.90
54124;DHT22;55741;53.252;5.788;2024-02-28T06:49:51;5.40;99.90
54124;DHT22;55741;53.252;5.788;2024-02-28T06:52:33;5.50;99.90
54124;DHT22;55741;53.252;5.788;2024-02-28T06:55:15;5.40;99.90
54124;DHT22;55741;53.252;5.788;2024-02-28T06:57:55;5.50;99.90
54124;DHT22;55741;53.252;5.788;2024-02-28T07:00:41;5.60;99.90
54124;DHT22;55741;53.252;5.788;2024-02-28T07:13:44;5.50;99.90
54124;DHT22;55741;53.252;5.788;2024-02-28T07:16:35;5.70;99.90
54124;DHT22;55741;53.252;5.788;2024-02-28T07:19:14;5.70;99.90
54124;DHT22;55741;53.252;5.788;2024-02-28T07:21:53;5.60;99.90
54124;DHT22;55741;53.252;5.788;2024-02-28T07:24:34;5.50;99.90
54124;DHT22;55741;53.252;5.788;2024-02-28T07:27:13;5.60;99.90
54124;DHT22;55741;53.252;5.788;2024-02-28T07:29:54;5.60;99.90
54124;DHT22;55741;53.252;5.788;2024-02-28T07:32:38;5.70;99.90
54124;DHT22;55741;53.252;5.788;2024-02-28T07:35:19;5.70;99.90
54124;DHT22;55741;53.252;5.788;2024-02-28T07:38:00;5.70;99.90
54124;DHT22;55741;53.252;5.788;2024-02-28T07:40:41;5.70;99.90
54124;DHT22;55741;53.252;5.788;2024-02-28T07:43:22;5.70;99.90
54124;DHT22;55741;53.252;5.788;2024-02-28T07:46:07;5.70;99.90
54124;DHT22;55741;53.252;5.788;2024-02-28T07:48:47;5.60;99.90
54124;DHT22;55741;53.252;5.788;2024-02-28T07:51:26;5.70;99.90
54124;DHT22;55741;53.252;5.788;2024-02-28T07:54:10;5.60;99.90
54124;DHT22;55741;53.252;5.788;2024-02-28T07:56:50;5.60;99.90
54124;DHT22;55741;53.252;5.788;2024-02-28T07:59:29;5.70;99.90
54124;DHT22;55741;53.252;5.788;2024-02-28T08:02:08;5.60;99.90
54124;DHT22;55741;53.252;5.788;2024-02-28T08:04:49;5.70;99.90
54124;DHT22;55741;53.252;5.788;2024-02-28T08:07:30;5.70;99.90
54124;DHT22;55741;53.252;5.788;2024-02-28T08:10:10;5.80;99.90
54124;DHT22;55741;53.252;5.788;2024-02-28T08:12:50;5.70;99.90
54124;DHT22;55741;53.252;5.788;2024-02-28T08:15:29;5.80;99.90
54124;DHT22;55741;53.252;5.788;2024-02-28T08:18:08;5.80;99.90
54124;DHT22;55741;53.252;5.788;2024-02-28T08:20:47;5.90;99.90
54124;DHT22;55741;53.252;5.788;2024-02-28T08:23:26;5.90;99.90
54124;DHT22;55741;53.252;5.788;2024-02-28T08:26:05;5.90;99.90
54124;DHT22;55741;53.252;5.788;2024-02-28T08:29:03;5.80;99.90
54124;DHT22;55741;53.252;5.788;2024-02-28T08:31:43;5.90;99.90
54124;DHT22;55741;53.252;5.788;2024-02-28T08:34:22;5.90;99.90
54124;DHT22;55741;53.252;5.788;2024-02-28T08:37:02;6.00;99.90
54124;DHT22;55741;53.252;5.788;2024-02-28T08:39:41;6.00;99.90
54124;DHT22;55741;53.252;5.788;2024-02-28T08:42:20;6.10;99.90
54124;DHT22;55741;53.252;5.788;2024-02-28T08:45:03;6.10;99.90
54124;DHT22;55741;53.252;5.788;2024-02-28T08:47:46;6.00;99.90
54124;DHT22;55741;53.252;5.788;2024-02-28T08:50:24;6.20;99.90
54124;DHT22;55741;53.252;5.788;2024-02-28T08:53:04;6.20;99.90
54124;DHT22;55741;53.252;5.788;2024-02-28T08:55:43;6.20;99.90
54124;DHT22;55741;53.252;5.788;2024-02-28T08:58:24;6.30;99.90
54124;DHT22;55741;53.252;5.788;2024-02-28T09:01:04;6.30;99.90
54124;DHT22;55741;53.252;5.788;2024-02-28T09:03:43;6.30;99.90
54124;DHT22;55741;53.252;5.788;2024-02-28T09:06:21;6.40;99.90
54124;DHT22;55741;53.252;5.788;2024-02-28T09:09:00;6.40;99.90
54124;DHT22;55741;53.252;5.788;2024-02-28T09:11:40;6.40;99.90
54124;DHT22;55741;53.252;5.788;2024-02-28T09:14:20;6.50;99.90
54124;DHT22;55741;53.252;5.788;2024-02-28T09:16:59;6.50;99.90
54124;DHT22;55741;53.252;5.788;2024-02-28T09:19:41;6.50;99.90
54124;DHT22;55741;53.252;5.788;2024-02-28T09:22:21;6.40;99.90
54124;DHT22;55741;53.252;5.788;2024-02-28T09:25:00;6.50;99.90
54124;DHT22;55741;53.252;5.788;2024-02-28T09:27:43;6.50;99.90
54124;DHT22;55741;53.252;5.788;2024-02-28T09:30:23;6.60;99.90
54124;DHT22;55741;53.252;5.788;2024-02-28T09:33:05;6.60;99.90
54124;DHT22;55741;53.252;5.788;2024-02-28T09:35:46;6.60;99.90
54124;DHT22;55741;53.252;5.788;2024-02-28T09:38:24;6.60;99.90
54124;DHT22;55741;53.252;5.788;2024-02-28T09:41:06;6.60;99.90
54124;DHT22;55741;53.252;5.788;2024-02-28T09:43:45;6.60;99.90
54124;DHT22;55741;53.252;5.788;2024-02-28T09:46:26;6.70;99.90
54124;DHT22;55741;53.252;5.788;2024-02-28T09:49:05;6.80;99.90
54124;DHT22;55741;53.252;5.788;2024-02-28T09:51:48;6.70;99.90
54124;DHT22;55741;53.252;5.788;2024-02-28T09:54:29;6.70;99.90
54124;DHT22;55741;53.252;5.788;2024-02-28T09:57:07;6.80;99.90
54124;DHT22;55741;53.252;5.788;2024-02-28T09:59:47;6.90;99.90
54124;DHT22;55741;53.252;5.788;2024-02-28T10:02:30;6.90;99.90
54124;DHT22;55741;53.252;5.788;2024-02-28T10:05:10;6.90;99.90
54124;DHT22;55741;53.252;5.788;2024-02-28T10:07:52;7.00;99.90
54124;DHT22;55741;53.252;5.788;2024-02-28T10:10:36;7.20;99.90
54124;DHT22;55741;53.252;5.788;2024-02-28T10:13:17;7.20;99.90
54124;DHT22;55741;53.252;5.788;2024-02-28T10:15:55;7.30;99.90
54124;DHT22;55741;53.252;5.788;2024-02-28T10:18:34;7.40;99.90
54124;DHT22;55741;53.252;5.788;2024-02-28T10:21:13;7.40;99.90
54124;DHT22;55741;53.252;5.788;2024-02-28T10:23:57;7.50;99.90
54124;DHT22;55741;53.252;5.788;2024-02-28T10:26:45;7.50;99.90
54124;DHT22;55741;53.252;5.788;2024-02-28T10:29:25;7.60;99.90
54124;DHT22;55741;53.252;5.788;2024-02-28T10:32:07;7.60;99.90
54124;DHT22;55741;53.252;5.788;2024-02-28T10:34:46;7.70;99.90
54124;DHT22;55741;53.252;5.788;2024-02-28T10:37:25;7.70;99.90
54124;DHT22;55741;53.252;5.788;2024-02-28T10:40:05;7.70;99.90
54124;DHT22;55741;53.252;5.788;2024-02-28T10:42:45;7.80;99.90
54124;DHT22;55741;53.252;5.788;2024-02-28T10:45:25;7.80;99.90
54124;DHT22;55741;53.252;5.788;2024-02-28T10:48:07;7.80;99.90
54124;DHT22;55741;53.252;5.788;2024-02-28T10:50:47;7.70;99.90
54124;DHT22;55741;53.252;5.788;2024-02-28T10:53:32;7.70;99.90
54124;DHT22;55741;53.252;5.788;2024-02-28T10:56:14;7.80;99.90
54124;DHT22;55741;53.252;5.788;2024-02-28T10:58:52;7.70;99.90
54124;DHT22;55741;53.252;5.788;2024-02-28T11:01:35;7.80;99.90
54124;DHT22;55741;53.252;5.788;2024-02-28T11:04:17;7.70;99.90
54124;DHT22;55741;53.252;5.788;2024-02-28T11:07:05;7.70;99.90
54124;DHT22;55741;53.252;5.788;2024-02-28T11:09:45;7.70;99.90
54124;DHT22;55741;53.252;5.788;2024-02-28T11:12:29;7.80;99.90
54124;DHT22;55741;53.252;5.788;2024-02-28T11:15:17;7.80;99.90
54124;DHT22;55741;53.252;5.788;2024-02-28T11:18:06;7.80;99.90
54124;DHT22;55741;53.252;5.788;2024-02-28T11:20:45;7.80;99.90
54124;DHT22;55741;53.252;5.788;2024-02-28T11:23:36;7.80;99.90
54124;DHT22;55741;53.252;5.788;2024-02-28T11:26:17;7.90;99.90
54124;DHT22;55741;53.252;5.788;2024-02-28T11:28:57;7.90;99.90
54124;DHT22;55741;53.252;5.788;2024-02-28T11:31:38;7.90;99.90
54124;DHT22;55741;53.252;5.788;2024-02-28T11:34:25;7.80;99.90
54124;DHT22;55741;53.252;5.788;2024-02-28T11:37:05;7.90;99.90
54124;DHT22;55741;53.252;5.788;2024-02-28T11:39:46;7.90;99.90
54124;DHT22;55741;53.252;5.788;2024-02-28T11:42:24;7.90;99.90
54124;DHT22;55741;53.252;5.788;2024-02-28T11:45:04;8.00;99.90
54124;DHT22;55741;53.252;5.788;2024-02-28T11:47:45;8.00;99.90
54124;DHT22;55741;53.252;5.788;2024-02-28T11:50:28;8.10;99.90
54124;DHT22;55741;53.252;5.788;2024-02-28T11:53:10;8.20;99.90
54124;DHT22;55741;53.252;5.788;2024-02-28T11:55:50;8.20;99.90
54124;DHT22;55741;53.252;5.788;2024-02-28T11:58:30;8.30;99.90
54124;DHT22;55741;53.252;5.788;2024-02-28T12:01:09;8.30;99.90
54124;DHT22;55741;53.252;5.788;2024-02-28T12:03:50;8.30;99.90
54124;DHT22;55741;53.252;5.788;2024-02-28T12:06:35;8.40;99.90
54124;DHT22;55741;53.252;5.788;2024-02-28T12:09:18;8.40;99.90
54124;DHT22;55741;53.252;5.788;2024-02-28T12:12:00;8.40;99.90
54124;DHT22;55741;53.252;5.788;2024-02-28T12:14:46;8.40;99.90
54124;DHT22;55741;53.252;5.788;2024-02-28T12:17:26;8.40;99.90
54124;DHT22;55741;53.252;5.788;2024-02-28T12:20:06;8.50;99.90
54124;DHT22;55741;53.252;5.788;2024-02-28T12:22:46;8.50;99.90
54124;DHT22;55741;53.252;5.788;2024-02-28T12:25:25;8.50;99.90
54124;DHT22;55741;53.252;5.788;2024-02-28T12:28:06;8.50;99.90
54124;DHT22;55741;53.252;5.788;2024-02-28T12:30:45;8.50;99.90
54124;DHT22;55741;53.252;5.788;2024-02-28T12:33:26;8.40;99.90
54124;DHT22;55741;53.252;5.788;2024-02-28T12:36:07;8.40;99.90
54124;DHT22;55741;53.252;5.788;2024-02-28T12:38:46;8.40;99.90
54124;DHT22;55741;53.252;5.788;2024-02-28T12:41:24;8.40;99.90
54124;DHT22;55741;53.252;5.788;2024-02-28T12:44:07;8.40;99.90
54124;DHT22;55741;53.252;5.788;2024-02-28T12:46:46;8.40;99.90
54124;DHT22;55741;53.252;5.788;2024-02-28T12:49:25;8.50;99.90
54124;DHT22;55741;53.252;5.788;2024-02-28T12:52:04;8.40;99.90
54124;DHT22;55741;53.252;5.788;2024-02-28T12:54:43;8.40;99.90
54124;DHT22;55741;53.252;5.788;2024-02-28T12:57:21;8.40;99.90
54124;DHT22;55741;53.252;5.788;2024-02-28T13:00:00;8.40;99.90
54124;DHT22;55741;53.252;5.788;2024-02-28T13:02:40;8.40;99.90
54124;DHT22;55741;53.252;5.788;2024-02-28T13:05:21;8.50;99.90
54124;DHT22;55741;53.252;5.788;2024-02-28T13:08:04;8.70;99.90
54124;DHT22;55741;53.252;5.788;2024-02-28T13:10:49;8.50;99.90
54124;DHT22;55741;53.252;5.788;2024-02-28T13:13:28;8.60;99.90
54124;DHT22;55741;53.252;5.788;2024-02-28T13:16:07;8.60;99.90
54124;DHT22;55741;53.252;5.788;2024-02-28T13:18:47;8.60;99.90
54124;DHT22;55741;53.252;5.788;2024-02-28T13:21:27;8.70;99.90
54124;DHT22;55741;53.252;5.788;2024-02-28T13:24:13;8.70;99.90
54124;DHT22;55741;53.252;5.788;2024-02-28T13:26:53;8.70;99.90
54124;DHT22;55741;53.252;5.788;2024-02-28T13:29:34;8.80;99.90
54124;DHT22;55741;53.252;5.788;2024-02-28T13:32:13;8.80;99.90
54124;DHT22;55741;53.252;5.788;2024-02-28T13:34:54;8.80;99.90
54124;DHT22;55741;53.252;5.788;2024-02-28T13:37:34;8.80;99.90
54124;DHT22;55741;53.252;5.788;2024-02-28T13:40:14;8.90;99.90
54124;DHT22;55741;53.252;5.788;2024-02-28T13:42:55;8.90;99.90
54124;DHT22;55741;53.252;5.788;2024-02-28T13:45:34;8.90;99.90
54124;DHT22;55741;53.252;5.788;2024-02-28T13:48:16;8.90;99.90
54124;DHT22;55741;53.252;5.788;2024-02-28T13:50:57;8.90;99.90
54124;DHT22;55741;53.252;5.788;2024-02-28T13:53:39;8.90;99.90
54124;DHT22;55741;53.252;5.788;2024-02-28T13:56:17;8.90;99.90
54124;DHT22;55741;53.252;5.788;2024-02-28T13:58:58;8.80;99.90
54124;DHT22;55741;53.252;5.788;2024-02-28T14:01:37;8.80;99.90
54124;DHT22;55741;53.252;5.788;2024-02-28T14:04:18;8.80;99.90
54124;DHT22;55741;53.252;5.788;2024-02-28T14:07:00;8.90;99.90
54124;DHT22;55741;53.252;5.788;2024-02-28T14:09:40;8.80;99.90
54124;DHT22;55741;53.252;5.788;2024-02-28T14:12:21;8.80;99.90
54124;DHT22;55741;53.252;5.788;2024-02-28T14:15:00;8.80;99.90
54124;DHT22;55741;53.252;5.788;2024-02-28T14:17:39;8.90;99.90
54124;DHT22;55741;53.252;5.788;2024-02-28T14:20:18;8.90;99.90
54124;DHT22;55741;53.252;5.788;2024-02-28T14:22:57;8.80;99.90
54124;DHT22;55741;53.252;5.788;2024-02-28T14:25:36;8.80;99.90
54124;DHT22;55741;53.252;5.788;2024-02-28T14:28:15;8.80;99.90
54124;DHT22;55741;53.252;5.788;2024-02-28T14:30:54;8.80;99.90
54124;DHT22;55741;53.252;5.788;2024-02-28T14:33:33;8.70;99.90
54124;DHT22;55741;53.252;5.788;2024-02-28T14:36:13;8.70;99.90
54124;DHT22;55741;53.252;5.788;2024-02-28T14:38:53;8.60;99.90
54124;DHT22;55741;53.252;5.788;2024-02-28T14:41:34;8.60;99.90
54124;DHT22;55741;53.252;5.788;2024-02-28T14:44:17;8.60;99.90
54124;DHT22;55741;53.252;5.788;2024-02-28T14:46:56;8.60;99.90
54124;DHT22;55741;53.252;5.788;2024-02-28T14:49:36;8.50;99.90
54124;DHT22;55741;53.252;5.788;2024-02-28T14:52:16;8.50;99.90
54124;DHT22;55741;53.252;5.788;2024-02-28T14:54:54;8.50;99.90
54124;DHT22;55741;53.252;5.788;2024-02-28T14:57:34;8.50;99.90
54124;DHT22;55741;53.252;5.788;2024-02-28T15:00:13;8.50;99.90
54124;DHT22;55741;53.252;5.788;2024-02-28T15:02:55;8.50;99.90
54124;DHT22;55741;53.252;5.788;2024-02-28T15:05:35;8.50;99.90
54124;DHT22;55741;53.252;5.788;2024-02-28T15:08:15;8.40;99.90
54124;DHT22;55741;53.252;5.788;2024-02-28T15:10:54;8.50;99.90
54124;DHT22;55741;53.252;5.788;2024-02-28T15:13:32;8.40;99.90
54124;DHT22;55741;53.252;5.788;2024-02-28T15:16:14;8.50;99.90
54124;DHT22;55741;53.252;5.788;2024-02-28T15:18:54;8.50;99.90
54124;DHT22;55741;53.252;5.788;2024-02-28T15:21:34;8.50;99.90
54124;DHT22;55741;53.252;5.788;2024-02-28T15:24:13;8.40;99.90
54124;DHT22;55741;53.252;5.788;2024-02-28T15:26:52;8.40;99.90
54124;DHT22;55741;53.252;5.788;2024-02-28T15:29:32;8.50;99.90
54124;DHT22;55741;53.252;5.788;2024-02-28T15:32:12;8.50;99.90
54124;DHT22;55741;53.252;5.788;2024-02-28T15:34:50;8.50;99.90
54124;DHT22;55741;53.252;5.788;2024-02-28T15:37:31;8.50;99.90
54124;DHT22;55741;53.252;5.788;2024-02-28T15:40:14;8.50;99.90
54124;DHT22;55741;53.252;5.788;2024-02-28T15:42:54;8.50;99.90
54124;DHT22;55741;53.252;5.788;2024-02-28T15:45:33;8.50;99.90
54124;DHT22;55741;53.252;5.788;2024-02-28T15:48:12;8.50;99.90
54124;DHT22;55741;53.252;5.788;2024-02-28T15:50:51;8.50;99.90
54124;DHT22;55741;53.252;5.788;2024-02-28T15:53:34;8.60;99.90
54124;DHT22;55741;53.252;5.788;2024-02-28T15:56:17;8.60;99.90
54124;DHT22;55741;53.252;5.788;2024-02-28T15:58:57;8.60;99.90
54124;DHT22;55741;53.252;5.788;2024-02-28T16:01:35;8.60;99.90
54124;DHT22;55741;53.252;5.788;2024-02-28T16:04:15;8.60;99.90
54124;DHT22;55741;53.252;5.788;2024-02-28T16:06:53;8.70;99.90
54124;DHT22;55741;53.252;5.788;2024-02-28T16:09:34;8.70;99.90
54124;DHT22;55741;53.252;5.788;2024-02-28T16:12:12;8.70;99.90
54124;DHT22;55741;53.252;5.788;2024-02-28T16:14:51;8.60;99.90
54124;DHT22;55741;53.252;5.788;2024-02-28T16:17:32;8.60;99.90
54124;DHT22;55741;53.252;5.788;2024-02-28T16:20:10;8.60;99.90
54124;DHT22;55741;53.252;5.788;2024-02-28T16:22:52;8.60;99.90
54124;DHT22;55741;53.252;5.788;2024-02-28T16:25:34;8.60;99.90
54124;DHT22;55741;53.252;5.788;2024-02-28T16:28:15;8.60;99.90
54124;DHT22;55741;53.252;5.788;2024-02-28T16:30:54;8.60;99.90
54124;DHT22;55741;53.252;5.788;2024-02-28T16:33:34;8.60;99.90
54124;DHT22;55741;53.252;5.788;2024-02-28T16:36:14;8.60;99.90
54124;DHT22;55741;53.252;5.788;2024-02-28T16:38:53;8.60;99.90
54124;DHT22;55741;53.252;5.788;2024-02-28T16:41:34;8.50;99.90
54124;DHT22;55741;53.252;5.788;2024-02-28T16:44:13;8.60;99.90
54124;DHT22;55741;53.252;5.788;2024-02-28T16:46:52;8.50;99.90
54124;DHT22;55741;53.252;5.788;2024-02-28T16:49:32;8.50;99.90
54124;DHT22;55741;53.252;5.788;2024-02-28T16:52:13;8.50;99.90
54124;DHT22;55741;53.252;5.788;2024-02-28T16:54:55;8.50;99.90
54124;DHT22;55741;53.252;5.788;2024-02-28T16:57:34;8.40;99.90
54124;DHT22;55741;53.252;5.788;2024-02-28T17:00:14;8.40;99.90
54124;DHT22;55741;53.252;5.788;2024-02-28T17:02:56;8.40;99.90
54124;DHT22;55741;53.252;5.788;2024-02-28T17:05:34;8.40;99.90
54124;DHT22;55741;53.252;5.788;2024-02-28T17:08:17;8.40;99.90
54124;DHT22;55741;53.252;5.788;2024-02-28T17:10:55;8.30;99.90
54124;DHT22;55741;53.252;5.788;2024-02-28T17:13:34;8.30;99.90
54124;DHT22;55741;53.252;5.788;2024-02-28T17:16:13;8.30;99.90
54124;DHT22;55741;53.252;5.788;2024-02-28T17:18:54;8.20;99.90